createdAt,value
2023-01-10T00:00:26.405Z,94493.94
2023-01-10T00:02:52.935Z,94504.78
2023-01-10T00:05:19.564Z,94526.41
2023-01-10T00:07:46.059Z,94536.28
2023-01-10T00:10:12.607Z,94527.34
2023-01-10T00:12:57.718Z,94537.44
2023-01-10T00:15:24.322Z,94522.84
2023-01-10T00:17:50.954Z,94530.94
2023-01-10T00:20:17.720Z,94521.53
2023-01-10T00:22:45.402Z,94516.19
2023-01-10T00:25:12.120Z,94498.16
2023-01-10T00:27:39.203Z,94498.81
2023-01-10T00:30:15.431Z,94502.38
2023-01-10T00:32:42.479Z,94495.22
2023-01-10T00:35:09.449Z,94484.47
2023-01-10T00:37:36.038Z,94486.75
2023-01-10T00:40:02.416Z,94488.72
2023-01-10T00:42:47.701Z,94498.59
2023-01-10T00:45:14.148Z,94510.81
2023-01-10T00:47:40.709Z,94532.88
2023-01-10T00:50:08.478Z,94558.06
2023-01-10T00:52:35.188Z,94593.63
2023-01-10T00:55:01.563Z,94612.50
2023-01-10T00:57:27.967Z,94606.31
2023-01-10T00:59:54.342Z,94601.75
2023-01-10T01:02:20.999Z,94600.13
2023-01-10T01:04:47.408Z,94619.31
2023-01-10T01:07:13.976Z,94631.31
2023-01-10T01:10:00.287Z,94651.47
2023-01-10T01:12:26.892Z,94676.78
2023-01-10T01:14:53.259Z,94678.41
2023-01-10T01:17:19.653Z,94676.78
2023-01-10T01:19:46.217Z,94682.34
2023-01-10T01:22:12.612Z,94700.53
2023-01-10T01:24:39.670Z,94692.41
2023-01-10T01:27:06.018Z,94697.28
2023-01-10T01:29:43.021Z,94699.72
2023-01-10T01:32:09.955Z,94701.50
2023-01-10T01:34:36.718Z,94733.81
2023-01-10T01:37:03.086Z,94766.00
2023-01-10T01:39:29.656Z,94805.13
2023-01-10T01:42:00.113Z,94829.16
2023-01-10T01:44:31.938Z,94851.91
2023-01-10T01:47:07.387Z,94860.38
2023-01-10T01:49:38.897Z,94865.56
2023-01-10T01:52:26.935Z,94870.94
2023-01-10T01:54:54.303Z,94855.16
2023-01-10T01:57:20.930Z,94822.19
2023-01-10T01:59:48.492Z,94803.19
2023-01-10T02:02:19.016Z,94779.97
2023-01-10T02:04:52.805Z,94769.22
2023-01-10T02:07:19.196Z,94777.53
2023-01-10T02:09:48.922Z,94785.66
2023-01-10T02:12:15.572Z,94788.25
2023-01-10T02:14:45.101Z,94802.38
2023-01-10T02:17:11.740Z,94815.22
2023-01-10T02:19:56.466Z,94820.44
2023-01-10T02:22:54.016Z,94827.25
2023-01-10T02:25:42.345Z,94827.41
2023-01-10T02:28:43.682Z,94825.94
2023-01-10T02:31:19.671Z,94837.94
2023-01-10T02:33:46.084Z,94856.28
2023-01-10T02:36:25.905Z,94861.66
2023-01-10T02:39:11.721Z,94865.56
2023-01-10T02:41:56.462Z,94889.94
2023-01-10T02:44:55.206Z,94929.06
2023-01-10T02:47:21.579Z,94949.88
2023-01-10T02:49:51.132Z,94978.63
2023-01-10T02:52:28.115Z,95032.53
2023-01-10T02:54:58.696Z,95057.56
2023-01-10T02:57:51.824Z,95062.09
2023-01-10T03:00:30.312Z,95061.81
2023-01-10T03:03:16.986Z,95068.78
2023-01-10T03:05:46.473Z,95064.84
2023-01-10T03:08:33.859Z,95056.22
2023-01-10T03:11:05.182Z,95044.88
2023-01-10T03:13:37.806Z,95044.56
2023-01-10T03:16:05.738Z,95053.63
2023-01-10T03:18:34.078Z,95055.28
2023-01-10T03:21:00.865Z,95065.69
2023-01-10T03:23:27.435Z,95065.69
2023-01-10T03:25:53.790Z,95067.94
2023-01-10T03:28:24.041Z,95083.88
2023-01-10T03:31:06.268Z,95092.59
2023-01-10T03:33:32.981Z,95087.25
2023-01-10T03:36:16.741Z,95062.41
2023-01-10T03:38:53.919Z,95009.09
2023-01-10T03:41:35.799Z,94965.38
2023-01-10T03:44:29.120Z,94909.34
2023-01-10T03:47:10.623Z,94837.53
2023-01-10T03:49:38.756Z,94795.13
2023-01-10T03:52:05.250Z,94779.34
2023-01-10T03:54:31.595Z,94761.03
2023-01-10T03:56:58.194Z,94725.47
2023-01-10T03:59:25.983Z,94706.63
2023-01-10T04:01:53.171Z,94689.13
2023-01-10T04:04:19.709Z,94668.00
2023-01-10T04:06:46.418Z,94652.09
2023-01-10T04:09:12.864Z,94651.78
2023-01-10T04:11:39.315Z,94652.09
2023-01-10T04:14:05.744Z,94637.81
2023-01-10T04:16:32.309Z,94630.84
2023-01-10T04:18:58.662Z,94634.22
2023-01-10T04:21:25.227Z,94634.53
2023-01-10T04:23:51.569Z,94652.41
2023-01-10T04:26:18.253Z,94655.03
2023-01-10T04:28:44.635Z,94649.66
2023-01-10T04:31:11.003Z,94658.28
2023-01-10T04:33:39.246Z,94681.66
2023-01-10T04:36:05.875Z,94697.41
2023-01-10T04:38:32.499Z,94719.66
2023-01-10T04:40:58.980Z,94736.88
2023-01-10T04:43:25.680Z,94746.28
2023-01-10T04:45:52.129Z,94766.28
2023-01-10T04:48:18.815Z,94796.16
2023-01-10T04:50:51.897Z,94818.06
2023-01-10T04:53:18.573Z,94830.91
2023-01-10T04:55:44.984Z,94853.91
2023-01-10T04:58:11.539Z,94850.50
2023-01-10T05:00:38.200Z,94858.59
2023-01-10T05:03:04.908Z,94889.00
2023-01-10T05:05:31.523Z,94907.63
2023-01-10T05:07:58.471Z,94924.31
2023-01-10T05:10:25.040Z,94932.94
2023-01-10T05:12:51.392Z,94958.25
2023-01-10T05:15:18.059Z,94965.75
2023-01-10T05:17:44.481Z,94986.66
2023-01-10T05:20:13.572Z,95018.97
2023-01-10T05:22:39.925Z,95050.78
2023-01-10T05:25:06.533Z,95101.78
2023-01-10T05:27:32.871Z,95125.81
2023-01-10T05:29:59.461Z,95129.41
2023-01-10T05:32:29.448Z,95129.41
2023-01-10T05:34:56.332Z,95114.59
2023-01-10T05:37:22.676Z,95063.78
2023-01-10T05:39:49.081Z,94991.34
2023-01-10T05:42:15.417Z,94929.31
2023-01-10T05:44:41.754Z,94888.06
2023-01-10T05:47:08.140Z,94841.63
2023-01-10T05:49:34.507Z,94795.16
2023-01-10T05:52:00.871Z,94766.91
2023-01-10T05:54:27.299Z,94746.47
2023-01-10T05:56:53.908Z,94750.34
2023-01-10T05:59:27.974Z,94748.53
2023-01-10T06:01:55.194Z,94756.50
2023-01-10T06:04:21.538Z,94776.31
2023-01-10T06:06:48.088Z,94812.81
2023-01-10T06:09:14.455Z,94824.00
2023-01-10T06:11:40.841Z,94842.34
2023-01-10T06:14:07.761Z,94864.22
2023-01-10T06:16:34.388Z,94903.81
2023-01-10T06:19:00.747Z,94948.41
2023-01-10T06:21:27.103Z,95000.19
2023-01-10T06:23:53.568Z,95040.22
2023-01-10T06:26:19.958Z,95081.94
2023-01-10T06:28:46.478Z,95120.88
2023-01-10T06:31:14.904Z,95136.75
2023-01-10T06:33:41.781Z,95171.75
2023-01-10T06:36:08.607Z,95219.81
2023-01-10T06:38:35.193Z,95271.22
2023-01-10T06:41:12.813Z,95304.00
2023-01-10T06:43:43.520Z,95335.00
2023-01-10T06:46:10.049Z,95384.34
2023-01-10T06:48:36.981Z,95421.47
2023-01-10T06:51:04.456Z,95468.78
2023-01-10T06:53:30.873Z,95503.47
2023-01-10T06:56:00.185Z,95539.56
2023-01-10T06:58:26.608Z,95561.97
2023-01-10T07:00:53.073Z,95604.88
2023-01-10T07:03:19.444Z,95638.50
2023-01-10T07:05:46.025Z,95650.66
2023-01-10T07:08:12.443Z,95681.81
2023-01-10T07:10:42.255Z,95704.09
2023-01-10T07:13:08.849Z,95717.25
2023-01-10T07:15:35.502Z,95731.75
2023-01-10T07:18:01.974Z,95759.59
2023-01-10T07:20:28.809Z,95791.59
2023-01-10T07:22:55.848Z,95845.31
2023-01-10T07:25:23.243Z,95884.84
2023-01-10T07:27:49.605Z,95919.53
2023-01-10T07:30:16.387Z,95959.47
2023-01-10T07:32:42.754Z,96020.97
2023-01-10T07:35:09.369Z,96038.69
2023-01-10T07:37:35.751Z,96092.31
2023-01-10T07:40:02.172Z,96124.75
2023-01-10T07:42:28.559Z,96157.81
2023-01-10T07:44:54.955Z,96174.44
2023-01-10T07:47:21.331Z,96178.84
2023-01-10T07:49:47.671Z,96177.19
2023-01-10T07:52:14.323Z,96191.94
2023-01-10T07:54:40.666Z,96203.16
2023-01-10T07:57:07.103Z,96206.69
2023-01-10T07:59:33.473Z,96193.00
2023-01-10T08:01:59.822Z,96170.31
2023-01-10T08:04:26.424Z,96159.13
2023-01-10T08:06:54.823Z,96151.91
2023-01-10T08:09:21.189Z,96143.06
2023-01-10T08:11:47.534Z,96154.97
2023-01-10T08:14:14.129Z,96140.13
2023-01-10T08:16:40.507Z,96129.47
2023-01-10T08:19:08.083Z,96113.66
2023-01-10T08:21:34.459Z,96123.31
2023-01-10T08:24:01.015Z,96099.47
2023-01-10T08:26:27.372Z,96086.38
2023-01-10T08:28:54.123Z,96102.19
2023-01-10T08:31:20.587Z,96100.28
2023-01-10T08:33:47.192Z,96111.38
2023-01-10T08:36:20.252Z,96118.09
2023-01-10T08:38:47.995Z,96114.56
2023-01-10T08:41:14.417Z,96126.84
2023-01-10T08:43:40.898Z,96134.38
2023-01-10T08:46:07.261Z,96147.28
2023-01-10T08:48:33.783Z,96141.97
2023-01-10T08:51:05.562Z,96145.53
2023-01-10T08:53:31.949Z,96140.06
2023-01-10T08:55:58.503Z,96150.22
2023-01-10T08:58:24.860Z,96143.13
2023-01-10T09:00:51.442Z,96131.69
2023-01-10T09:03:19.076Z,96132.50
2023-01-10T09:05:45.467Z,96120.91
2023-01-10T09:08:11.866Z,96106.84
2023-01-10T09:10:38.435Z,96078.13
2023-01-10T09:13:05.866Z,96061.59
2023-01-10T09:15:34.452Z,96067.22
2023-01-10T09:18:02.323Z,96054.94
2023-01-10T09:20:29.201Z,96037.19
2023-01-10T09:22:56.843Z,96000.28
2023-01-10T09:25:23.361Z,95999.34
2023-01-10T09:27:56.381Z,96046.56
2023-01-10T09:30:22.922Z,96092.03
2023-01-10T09:32:53.664Z,96110.78
2023-01-10T09:35:20.107Z,96138.91
2023-01-10T09:37:46.500Z,96197.53
2023-01-10T09:40:16.886Z,96230.94
2023-01-10T09:42:43.502Z,96264.41
2023-01-10T09:45:19.422Z,96301.97
2023-01-10T09:47:54.303Z,96336.50
2023-01-10T09:50:32.094Z,96368.88
2023-01-10T09:53:06.988Z,96410.25
2023-01-10T09:55:34.584Z,96450.25
2023-01-10T09:58:04.145Z,96485.47
2023-01-10T10:00:39.336Z,96511.63
2023-01-10T10:03:14.937Z,96550.28
2023-01-10T10:05:41.880Z,96579.88
2023-01-10T10:08:08.737Z,96614.41
2023-01-10T10:10:39.571Z,96677.69
2023-01-10T10:13:27.449Z,96668.81
2023-01-10T10:16:02.798Z,96704.31
2023-01-10T10:18:49.265Z,96691.28
2023-01-10T10:21:27.658Z,96706.78
2023-01-10T10:24:00.113Z,96691.06
2023-01-10T10:26:33.181Z,96722.31
2023-01-10T10:29:14.722Z,96746.56
2023-01-10T10:32:02.796Z,96791.75
2023-01-10T10:34:48.349Z,96782.16
2023-01-10T10:37:32.643Z,96764.44
2023-01-10T10:40:00.883Z,96795.88
2023-01-10T10:42:29.729Z,96794.03
2023-01-10T10:45:07.683Z,96816.72
2023-01-10T10:47:35.254Z,96834.00
2023-01-10T10:50:34.028Z,96829.03
2023-01-10T10:53:03.961Z,96817.56
2023-01-10T10:55:35.216Z,96807.72
2023-01-10T10:58:02.610Z,96849.63
2023-01-10T11:00:31.179Z,96866.66
2023-01-10T11:03:03.435Z,96897.91
2023-01-10T11:05:37.164Z,96881.47
2023-01-10T11:08:08.280Z,96911.84
2023-01-10T11:10:35.030Z,96949.34
2023-01-10T11:13:06.698Z,96997.75
2023-01-10T11:15:36.384Z,96996.59
2023-01-10T11:18:16.504Z,96986.00
2023-01-10T11:20:52.178Z,96976.06
2023-01-10T11:23:23.704Z,96989.69
2023-01-10T11:25:50.370Z,97005.13
2023-01-10T11:28:18.468Z,96975.22
2023-01-10T11:30:47.287Z,96998.00
2023-01-10T11:33:20.521Z,97002.16
2023-01-10T11:36:01.663Z,97020.19
2023-01-10T11:38:31.164Z,97026.34
2023-01-10T11:41:02.340Z,97017.78
2023-01-10T11:43:33.938Z,97024.47
2023-01-10T11:46:12.701Z,97006.97
2023-01-10T11:49:10.206Z,97001.75
2023-01-10T11:52:06.360Z,96980.69
2023-01-10T11:54:32.905Z,96990.19
2023-01-10T11:57:16.061Z,96999.19
2023-01-10T12:00:04.008Z,97036.16
2023-01-10T12:02:40.610Z,97013.31
2023-01-10T12:05:09.335Z,97063.22
2023-01-10T12:07:58.957Z,97071.03
2023-01-10T12:10:27.288Z,97097.09
2023-01-10T12:12:58.805Z,97121.69
2023-01-10T12:15:30.416Z,97156.41
2023-01-10T12:18:01.542Z,97179.75
2023-01-10T12:20:29.895Z,97208.00
2023-01-10T12:22:59.525Z,97223.94
2023-01-10T12:25:36.969Z,97230.50
2023-01-10T12:28:03.825Z,97275.97
2023-01-10T12:30:38.674Z,97321.09
2023-01-10T12:33:13.680Z,97331.84
2023-01-10T12:35:42.089Z,97272.00
2023-01-10T12:38:41.727Z,97270.09
2023-01-10T12:41:08.139Z,97303.28
2023-01-10T12:43:55.226Z,97346.31
2023-01-10T12:47:00.106Z,97389.19
2023-01-10T12:49:28.495Z,97383.44
2023-01-10T12:51:55.191Z,97427.22
2023-01-10T12:54:23.418Z,97435.38
2023-01-10T12:56:49.813Z,97457.97
2023-01-10T12:59:37.923Z,97517.38
2023-01-10T13:02:25.869Z,97508.63
2023-01-10T13:04:56.002Z,97500.28
2023-01-10T13:07:22.615Z,97516.38
2023-01-10T13:09:49.019Z,97534.44
2023-01-10T13:12:31.800Z,97526.38
2023-01-10T13:15:01.419Z,97473.66
2023-01-10T13:17:33.867Z,97464.91
2023-01-10T13:20:25.854Z,97514.22
2023-01-10T13:22:53.368Z,97523.00
2023-01-10T13:25:30.357Z,97564.19
2023-01-10T13:28:03.744Z,97607.78
2023-01-10T13:30:37.483Z,97566.06
2023-01-10T13:33:21.101Z,97578.34
2023-01-10T13:35:48.995Z,97608.78
2023-01-10T13:38:27.983Z,97624.53
2023-01-10T13:41:05.552Z,97651.53
2023-01-10T13:43:37.267Z,97649.84
2023-01-10T13:46:16.175Z,97613.38
2023-01-10T13:49:03.609Z,97588.22
2023-01-10T13:51:31.001Z,97577.09
2023-01-10T13:54:01.834Z,97574.47
2023-01-10T13:56:36.008Z,97610.41
2023-01-10T13:59:18.022Z,97618.97
2023-01-10T14:02:03.775Z,97625.22
2023-01-10T14:04:31.791Z,97646.16
2023-01-10T14:07:02.139Z,97645.31
2023-01-10T14:09:32.654Z,97651.38
2023-01-10T14:11:59.580Z,97655.84
2023-01-10T14:14:32.015Z,97609.66
2023-01-10T14:17:10.563Z,97610.59
2023-01-10T14:19:36.961Z,97594.13
2023-01-10T14:22:03.781Z,97565.75
2023-01-10T14:24:43.679Z,97506.72
2023-01-10T14:27:14.585Z,97529.47
2023-01-10T14:29:40.980Z,97517.38
2023-01-10T14:32:17.624Z,97537.38
2023-01-10T14:34:46.506Z,97567.81
2023-01-10T14:37:37.658Z,97590.44
2023-01-10T14:40:29.292Z,97609.69
2023-01-10T14:42:58.353Z,97609.69
2023-01-10T14:45:27.847Z,97624.69
2023-01-10T14:47:54.401Z,97599.66
2023-01-10T14:50:30.255Z,97631.13
2023-01-10T14:52:56.657Z,97614.72
2023-01-10T14:55:23.298Z,97596.59
2023-01-10T14:58:01.597Z,97536.03
2023-01-10T15:00:32.719Z,97534.34
2023-01-10T15:03:03.063Z,97522.34
2023-01-10T15:05:36.486Z,97527.66
2023-01-10T15:08:25.158Z,97539.13
2023-01-10T15:10:56.974Z,97519.31
2023-01-10T15:13:26.277Z,97533.44
2023-01-10T15:15:52.780Z,97545.66
2023-01-10T15:18:37.829Z,97548.16
2023-01-10T15:21:04.460Z,97530.94
2023-01-10T15:23:38.353Z,97529.28
2023-01-10T15:26:10.638Z,97492.19
2023-01-10T15:28:37.060Z,97551.13
2023-01-10T15:31:04.777Z,97583.22
2023-01-10T15:33:32.908Z,97533.66
2023-01-10T15:36:04.115Z,97520.09
2023-01-10T15:38:34.044Z,97488.84
2023-01-10T15:41:04.257Z,97496.94
2023-01-10T15:43:31.056Z,97492.44
2023-01-10T15:45:58.497Z,97458.91
2023-01-10T15:48:30.905Z,97470.44
2023-01-10T15:51:04.363Z,97452.59
2023-01-10T15:53:53.839Z,97441.44
2023-01-10T15:56:28.040Z,97463.50
2023-01-10T15:58:55.155Z,97472.13
2023-01-10T16:01:21.624Z,97485.34
2023-01-10T16:03:52.627Z,97491.59
2023-01-10T16:06:34.923Z,97473.63
2023-01-10T16:09:06.208Z,97482.56
2023-01-10T16:12:09.905Z,97494.63
2023-01-10T16:14:36.476Z,97517.50
2023-01-10T16:17:02.983Z,97550.41
2023-01-10T16:19:29.373Z,97559.16
2023-01-10T16:21:59.169Z,97563.69
2023-01-10T16:24:28.060Z,97562.03
2023-01-10T16:26:55.469Z,97543.06
2023-01-10T16:29:22.804Z,97564.72
2023-01-10T16:31:49.733Z,97578.75
2023-01-10T16:34:16.306Z,97547.44
2023-01-10T16:36:43.068Z,97570.31
2023-01-10T16:39:23.051Z,97601.53
2023-01-10T16:42:08.515Z,97605.03
2023-01-10T16:44:35.039Z,97641.66
2023-01-10T16:47:04.911Z,97678.09
2023-01-10T16:49:32.875Z,97695.38
2023-01-10T16:51:59.438Z,97704.09
2023-01-10T16:54:25.866Z,97735.47
2023-01-10T16:56:52.447Z,97759.84
2023-01-10T16:59:20.259Z,97792.72
2023-01-10T17:01:57.555Z,97786.78
2023-01-10T17:04:27.189Z,97799.88
2023-01-10T17:06:53.986Z,97799.94
2023-01-10T17:09:24.629Z,97799.09
2023-01-10T17:12:03.040Z,97818.22
2023-01-10T17:14:30.510Z,97831.31
2023-01-10T17:16:56.923Z,97855.59
2023-01-10T17:19:24.369Z,97857.50
2023-01-10T17:21:50.738Z,97900.66
2023-01-10T17:24:17.679Z,97884.28
2023-01-10T17:26:44.055Z,97899.13
2023-01-10T17:29:10.419Z,97907.69
2023-01-10T17:31:36.798Z,97907.75
2023-01-10T17:34:03.230Z,97871.41
2023-01-10T17:36:32.351Z,97873.44
2023-01-10T17:38:59.665Z,97901.16
2023-01-10T17:41:26.050Z,97922.78
2023-01-10T17:43:52.433Z,97947.78
2023-01-10T17:46:18.878Z,97937.56
2023-01-10T17:48:45.361Z,97951.47
2023-01-10T17:51:13.129Z,98001.66
2023-01-10T17:53:40.392Z,98009.47
2023-01-10T17:56:07.110Z,98013.88
2023-01-10T17:58:34.435Z,98041.59
2023-01-10T18:01:00.996Z,98051.22
2023-01-10T18:03:27.677Z,98036.69
2023-01-10T18:05:55.600Z,98046.09
2023-01-10T18:08:22.303Z,98023.69
2023-01-10T18:10:48.927Z,98001.13
2023-01-10T18:13:16.016Z,97977.81
2023-01-10T18:15:47.407Z,97993.56
2023-01-10T18:18:14.058Z,98015.22
2023-01-10T18:20:41.668Z,98068.75
2023-01-10T18:23:22.770Z,98040.22
2023-01-10T18:26:02.385Z,98064.38
2023-01-10T18:28:40.505Z,98074.78
2023-01-10T18:31:17.864Z,98046.28
2023-01-10T18:33:45.009Z,98083.38
2023-01-10T18:36:14.730Z,98113.66
2023-01-10T18:38:41.316Z,98123.13
2023-01-10T18:41:07.941Z,98120.47
2023-01-10T18:43:34.368Z,98131.72
2023-01-10T18:46:08.044Z,98133.41
2023-01-10T18:48:34.400Z,98167.97
2023-01-10T18:51:01.558Z,98142.75
2023-01-10T18:53:27.968Z,98121.16
2023-01-10T18:55:54.732Z,98123.84
2023-01-10T18:58:28.619Z,98128.19
2023-01-10T19:00:55.007Z,98109.22
2023-01-10T19:03:21.742Z,98096.97
2023-01-10T19:05:48.126Z,98058.09
2023-01-10T19:08:14.552Z,98096.13
2023-01-10T19:11:07.156Z,98058.88
2023-01-10T19:13:30.860Z,98070.97
2023-01-10T19:16:16.646Z,98052.75
2023-01-10T19:18:43.540Z,98066.50
2023-01-10T19:21:15.016Z,98070.03
2023-01-10T19:23:42.723Z,98095.00
2023-01-10T19:26:09.112Z,98047.41
2023-01-10T19:28:35.526Z,98081.97
2023-01-10T19:31:04.983Z,98090.72
2023-01-10T19:33:34.180Z,98083.66
2023-01-10T19:36:04.757Z,98077.56
2023-01-10T19:38:31.123Z,98066.22
2023-01-10T19:40:57.914Z,98108.47
2023-01-10T19:43:25.866Z,98101.41
2023-01-10T19:45:53.293Z,98110.13
2023-01-10T19:48:19.763Z,98124.75
2023-01-10T19:50:46.595Z,98091.78
2023-01-10T19:53:13.410Z,98106.59
2023-01-10T19:55:39.850Z,98111.81
2023-01-10T19:58:06.277Z,98114.41
2023-01-10T20:00:32.625Z,98111.66
2023-01-10T20:03:03.087Z,98124.59
2023-01-10T20:05:29.655Z,98116.72
2023-01-10T20:07:56.015Z,98119.41
2023-01-10T20:10:22.439Z,98132.16
2023-01-10T20:12:48.935Z,98146.72
2023-01-10T20:15:15.375Z,98123.34
2023-01-10T20:17:43.139Z,98107.66
2023-01-10T20:20:10.206Z,98089.53
2023-01-10T20:22:36.548Z,98094.59
2023-01-10T20:25:02.962Z,98071.25
2023-01-10T20:27:29.342Z,98046.06
2023-01-10T20:29:55.766Z,98022.72
2023-01-10T20:32:22.909Z,97989.81
2023-01-10T20:34:49.747Z,97932.72
2023-01-10T20:37:16.275Z,97898.16
2023-01-10T20:39:42.633Z,97870.44
2023-01-10T20:42:09.082Z,97761.16
2023-01-10T20:44:35.441Z,97628.97
2023-01-10T20:47:01.803Z,97523.91
2023-01-10T20:49:28.211Z,97454.69
2023-01-10T20:51:54.724Z,97320.78
2023-01-10T20:54:21.076Z,97194.91
2023-01-10T20:56:47.741Z,97087.75
2023-01-10T20:59:14.099Z,96947.19
2023-01-10T21:01:40.640Z,96849.03
2023-01-10T21:04:07.429Z,96766.31
2023-01-10T21:06:34.353Z,96711.25
2023-01-10T21:09:00.965Z,96607.72
2023-01-10T21:11:27.560Z,96549.84
2023-01-10T21:13:54.021Z,96485.09
2023-01-10T21:16:21.965Z,96383.78
2023-01-10T21:18:48.677Z,96267.72
2023-01-10T21:21:17.041Z,96166.50
2023-01-10T21:23:43.431Z,96089.09
2023-01-10T21:26:13.697Z,96061.19
2023-01-10T21:28:46.478Z,96028.16
2023-01-10T21:31:18.120Z,95999.81
2023-01-10T21:33:44.629Z,95983.03
2023-01-10T21:36:12.683Z,95948.56
2023-01-10T21:38:40.509Z,95966.06
2023-01-10T21:41:09.801Z,95937.34
2023-01-10T21:43:36.297Z,95910.22
2023-01-10T21:46:02.763Z,95911.06
2023-01-10T21:48:29.314Z,95966.56
2023-01-10T21:50:57.624Z,95994.88
2023-01-10T21:53:24.124Z,96013.75
2023-01-10T21:55:50.484Z,96078.69
2023-01-10T21:58:16.898Z,96114.78
2023-01-10T22:00:43.518Z,96144.31
2023-01-10T22:03:09.907Z,96163.44
2023-01-10T22:05:36.276Z,96200.66
2023-01-10T22:08:02.872Z,96229.91
2023-01-10T22:10:30.157Z,96251.28
2023-01-10T22:12:56.550Z,96264.38
2023-01-10T22:15:22.930Z,96239.47
2023-01-10T22:17:49.280Z,96204.53
2023-01-10T22:20:16.869Z,96153.91
2023-01-10T22:22:43.372Z,96088.13
2023-01-10T22:25:09.829Z,96028.63
2023-01-10T22:27:36.187Z,95985.31
2023-01-10T22:30:02.569Z,95920.50
2023-01-10T22:32:28.948Z,95843.53
2023-01-10T22:34:55.288Z,95787.50
2023-01-10T22:37:21.885Z,95735.16
2023-01-10T22:39:48.665Z,95663.66
2023-01-10T22:42:15.140Z,95615.97
2023-01-10T22:44:41.543Z,95557.88
2023-01-10T22:47:08.580Z,95564.72
2023-01-10T22:49:34.945Z,95566.09
2023-01-10T22:52:01.540Z,95568.53
2023-01-10T22:54:27.925Z,95558.16
2023-01-10T22:56:54.289Z,95560.63
2023-01-10T22:59:20.846Z,95562.25
2023-01-10T23:01:47.220Z,95623.28
2023-01-10T23:04:13.682Z,95653.34
2023-01-10T23:06:40.115Z,95693.25
2023-01-10T23:09:06.509Z,95759.56
2023-01-10T23:11:32.890Z,95810.56
2023-01-10T23:13:59.292Z,95877.63
2023-01-10T23:16:32.596Z,95997.78
2023-01-10T23:19:00.032Z,96062.63
2023-01-10T23:21:27.133Z,96065.59
2023-01-10T23:23:54.470Z,96131.84
2023-01-10T23:26:20.831Z,96200.81
2023-01-10T23:28:48.717Z,96225.97
2023-01-10T23:31:16.695Z,96270.75
2023-01-10T23:33:43.057Z,96338.69
2023-01-10T23:36:10.011Z,96386.19
2023-01-10T23:38:36.432Z,96425.06
2023-01-10T23:41:03.081Z,96455.22
2023-01-10T23:43:29.887Z,96481.22
2023-01-10T23:45:56.423Z,96499.28
2023-01-10T23:48:23.082Z,96500.34
2023-01-10T23:50:50.052Z,96570.81
2023-01-10T23:53:16.928Z,96553.78
2023-01-10T23:55:43.329Z,96569.16
2023-01-10T23:58:09.763Z,96551.91
